Time;durP1;ratioP1;P1;durP2;ratioP2;P2;SDS_P1;SDS_P2;PMS_P1;PMS_P2;Temp;Humidity;BMP_temperature;BMP_pressure;BME280_temperature;BME280_humidity;BME280_pressure;Samples;Min_cycle;Max_cycle;Signal;HPM_P1;HPM_P2
2022/02/01 00:01:58;;;;;;;17.38;1.80;;;;;;;4.97;100.00;102111.72;5068352;28;20135;-33
2022/02/01 00:04:35;;;;;;;15.70;2.20;;;;;;;5.00;100.00;102125.91;5070946;28;20140;-33
2022/02/01 00:07:14;;;;;;;13.98;1.48;;;;;;;5.03;100.00;102149.50;5068246;28;20044;-33
2022/02/01 00:09:51;;;;;;;13.02;1.60;;;;;;;5.04;100.00;102131.81;5070807;28;20156;-40
2022/02/01 00:12:29;;;;;;;10.73;1.50;;;;;;;5.05;100.00;102137.13;5071013;28;20045;-33
2022/02/01 00:33:06;;;;;;;13.15;1.73;;;;;;;5.06;100.00;102121.38;5059817;28;20127;-40
2022/02/01 00:35:03;;;;;;;8.45;1.38;;;;;;;5.11;100.00;102041.28;5070403;28;20040;-33
2022/02/01 00:37:35;;;;;;;12.02;1.73;;;;;;;5.11;100.00;102025.53;5070571;28;20132;-34
2022/02/01 00:40:11;;;;;;;11.35;1.10;;;;;;;5.13;100.00;102040.00;5070703;28;20040;-33
2022/02/01 00:42:39;;;;;;;9.50;1.40;;;;;;;5.16;100.00;102067.19;5069977;28;20044;-29
2022/02/01 00:45:07;;;;;;;12.07;1.70;;;;;;;5.19;100.00;102079.72;5070709;28;20048;-35
2022/02/01 00:47:34;;;;;;;12.45;1.30;;;;;;;5.21;100.00;102088.59;5070641;28;20044;-37
2022/02/01 00:50:03;;;;;;;7.60;0.95;;;;;;;5.19;100.00;102099.09;5069780;28;20041;-34
2022/02/01 00:52:31;;;;;;;7.55;1.10;;;;;;;5.11;100.00;102111.31;5070253;28;20504;-35
2022/02/01 00:54:58;;;;;;;6.68;1.00;;;;;;;5.08;100.00;102108.16;5070431;28;20056;-38
2022/02/01 00:57:28;;;;;;;5.70;0.98;;;;;;;5.02;100.00;102084.19;5069658;28;20136;-38
2022/02/01 00:59:55;;;;;;;7.85;1.40;;;;;;;4.96;100.00;102066.63;5070009;28;20417;-37
2022/02/01 01:02:23;;;;;;;5.80;1.15;;;;;;;4.90;100.00;102048.16;5070575;28;20405;-37
2022/02/01 01:04:51;;;;;;;7.38;1.10;;;;;;;4.88;100.00;102033.72;5073480;28;20044;-29
2022/02/01 01:07:19;;;;;;;7.03;1.10;;;;;;;4.85;100.00;102015.69;5074524;28;20058;-32
2022/02/01 01:09:47;;;;;;;6.32;1.25;;;;;;;4.85;100.00;102023.13;5073965;28;20071;-37
2022/02/01 01:12:16;;;;;;;6.10;1.00;;;;;;;4.85;100.00;102039.72;5073252;28;20094;-34
2022/02/01 01:15:11;;;;;;;7.50;1.08;;;;;;;4.86;100.00;102052.47;5073965;28;20060;-34
2022/02/01 01:45:15;;;;;;;8.23;1.55;;;;;;;5.11;100.00;102064.28;5072772;28;20037;-36
2022/02/01 01:53:20;;;;;;;20.85;1.83;;;;;;;5.15;100.00;102043.38;5072633;28;20063;-34
2022/02/01 01:55:50;;;;;;;9.73;1.23;;;;;;;5.20;100.00;102035.19;5073427;28;20041;-39
2022/02/01 01:58:18;;;;;;;13.50;1.88;;;;;;;5.24;100.00;102037.47;5073350;28;20048;-36
2022/02/01 02:01:04;;;;;;;12.82;1.88;;;;;;;5.28;100.00;102031.25;5072383;28;20075;-35
2022/02/01 02:03:33;;;;;;;12.82;1.90;;;;;;;5.33;100.00;102013.94;5072987;28;20063;-36
2022/02/01 02:06:01;;;;;;;14.10;1.67;;;;;;;5.36;100.00;102025.41;5073197;28;20052;-33
2022/02/01 02:08:29;;;;;;;11.55;1.90;;;;;;;5.40;100.00;102009.97;5071993;28;20051;-38
2022/02/01 02:11:02;;;;;;;12.88;1.90;;;;;;;5.43;100.00;102003.13;5073132;28;20037;-32
2022/02/01 02:16:16;;;;;;;13.95;2.00;;;;;;;5.49;100.00;102007.72;5072842;28;20507;-36
2022/02/01 02:18:45;;;;;;;12.60;2.08;;;;;;;5.53;100.00;101992.34;5073037;28;20466;-34
2022/02/01 02:21:16;;;;;;;9.30;1.65;;;;;;;5.56;100.00;101993.78;5070934;28;20066;-34
2022/02/01 02:23:44;;;;;;;11.05;2.17;;;;;;;5.55;100.00;101998.47;5072884;28;20071;-33
2022/02/01 02:26:14;;;;;;;18.25;2.63;;;;;;;5.57;100.00;101989.94;5072359;28;20383;-41
2022/02/01 02:28:41;;;;;;;14.90;2.30;;;;;;;5.58;100.00;101992.47;5072071;28;20059;-30
2022/02/01 02:31:09;;;;;;;15.38;2.25;;;;;;;5.57;100.00;101979.72;5072340;28;20037;-37
2022/02/01 02:33:37;;;;;;;13.63;1.85;;;;;;;5.58;100.00;101988.84;5071586;28;20070;-38
2022/02/01 02:36:11;;;;;;;8.15;1.60;;;;;;;5.58;100.00;101975.84;5071700;28;20049;-37
2022/02/01 02:38:44;;;;;;;11.93;2.10;;;;;;;5.59;100.00;101988.63;5070875;28;20045;-34
2022/02/01 02:41:27;;;;;;;13.25;1.90;;;;;;;5.60;100.00;101979.19;5072514;28;20044;-36
2022/02/01 02:46:44;;;;;;;11.98;2.13;;;;;;;5.61;100.00;101946.81;5072188;28;20387;-35
2022/02/01 02:49:15;;;;;;;13.45;1.90;;;;;;;5.62;100.00;101927.19;5067638;28;20079;-34
2022/02/01 02:51:43;;;;;;;18.88;2.50;;;;;;;5.62;100.00;101912.50;5072282;28;20048;-33
2022/02/01 02:54:13;;;;;;;15.43;2.60;;;;;;;5.63;100.00;101912.28;5071878;28;20040;-39
2022/02/01 02:56:44;;;;;;;16.05;3.13;;;;;;;5.64;100.00;101919.50;5071461;28;20044;-33
2022/02/01 02:59:13;;;;;;;14.77;2.70;;;;;;;5.64;100.00;101902.88;5070517;28;20048;-40
2022/02/01 03:01:41;;;;;;;13.77;2.28;;;;;;;5.63;100.00;101892.91;5071775;28;20053;-30
2022/02/01 03:04:10;;;;;;;13.80;1.83;;;;;;;5.63;100.00;101881.81;5071085;28;20052;-32
2022/02/01 03:06:37;;;;;;;15.00;2.00;;;;;;;5.63;100.00;101890.13;5072023;28;20040;-35
2022/02/01 03:09:05;;;;;;;15.18;2.33;;;;;;;5.63;100.00;101892.91;5071227;28;20053;-37
2022/02/01 03:11:34;;;;;;;14.95;1.98;;;;;;;5.61;100.00;101892.28;5071066;28;20068;-36
2022/02/01 03:14:05;;;;;;;13.57;2.83;;;;;;;5.60;100.00;101879.53;5071724;28;20056;-33
2022/02/01 03:16:49;;;;;;;13.85;2.38;;;;;;;5.61;100.00;101861.84;5070691;28;20037;-32
2022/02/01 03:22:03;;;;;;;17.38;2.35;;;;;;;5.59;100.00;101860.41;5062408;28;20037;-34
2022/02/01 03:24:31;;;;;;;14.20;2.08;;;;;;;5.58;100.00;101845.72;5069926;28;20048;-33
2022/02/01 03:27:00;;;;;;;19.10;2.55;;;;;;;5.58;100.00;101834.66;5071328;28;20039;-34
2022/02/01 03:29:28;;;;;;;11.05;2.08;;;;;;;5.61;100.00;101830.53;5071371;28;20068;-38
2022/02/01 03:31:56;;;;;;;18.52;2.80;;;;;;;5.58;100.00;101818.03;5070679;28;20075;-37
2022/02/01 03:34:24;;;;;;;17.58;2.60;;;;;;;5.59;100.00;101819.72;5071344;28;20040;-36
2022/02/01 03:36:51;;;;;;;17.95;2.38;;;;;;;5.59;100.00;101816.97;5071462;28;20036;-29
2022/02/01 03:39:19;;;;;;;16.10;3.00;;;;;;;5.58;100.00;101826.34;5070263;28;20041;-33
2022/02/01 03:41:47;;;;;;;15.05;2.75;;;;;;;5.58;100.00;101831.88;5071325;28;20417;-38
2022/02/01 03:44:16;;;;;;;14.60;2.90;;;;;;;5.60;100.00;101840.78;5071271;28;20040;-39
2022/02/01 03:46:53;;;;;;;15.93;2.40;;;;;;;5.59;100.00;101850.19;5070477;28;20041;-32
2022/02/01 03:49:21;;;;;;;17.15;2.65;;;;;;;5.62;100.00;101855.22;5068278;28;20040;-34
2022/02/01 03:51:49;;;;;;;15.20;2.83;;;;;;;5.64;100.00;101853.06;5070603;28;20124;-37
2022/02/01 03:54:16;;;;;;;13.43;2.40;;;;;;;5.64;100.00;101850.28;5070002;28;20505;-36
2022/02/01 03:56:44;;;;;;;20.15;2.38;;;;;;;5.67;100.00;101841.50;5071358;28;20061;-35
2022/02/01 03:59:12;;;;;;;12.20;2.50;;;;;;;5.70;100.00;101846.56;5070296;28;20051;-35
2022/02/01 04:01:41;;;;;;;17.02;2.85;;;;;;;5.69;100.00;101828.25;5071207;28;20040;-39
2022/02/01 04:04:10;;;;;;;17.10;2.72;;;;;;;5.70;100.00;101829.09;5070716;28;20090;-35
2022/02/01 04:06:38;;;;;;;20.10;3.03;;;;;;;5.71;100.00;101828.84;5069300;28;20127;-35
2022/02/01 04:09:06;;;;;;;15.93;2.60;;;;;;;5.73;100.00;101829.47;5070792;28;20052;-34
2022/02/01 04:11:33;;;;;;;16.05;2.72;;;;;;;5.75;100.00;101832.81;5070981;28;20060;-34
2022/02/01 04:14:01;;;;;;;18.15;3.45;;;;;;;5.77;100.00;101836.19;5070262;28;20048;-32
2022/02/01 04:16:29;;;;;;;15.07;2.67;;;;;;;5.77;100.00;101827.88;5070787;28;20048;-36
2022/02/01 04:19:02;;;;;;;17.95;3.35;;;;;;;5.77;100.00;101818.75;5061419;28;20045;-32
2022/02/01 04:21:30;;;;;;;19.15;2.92;;;;;;;5.79;100.00;101811.03;5070064;28;20119;-38
2022/02/01 04:23:57;;;;;;;15.57;2.78;;;;;;;5.77;100.00;101802.97;5071101;28;20059;-36
2022/02/01 04:26:30;;;;;;;19.33;3.33;;;;;;;5.80;100.00;101796.06;5070923;28;20044;-29
2022/02/01 04:28:58;;;;;;;21.02;3.35;;;;;;;5.81;100.00;101804.13;5069849;28;20081;-31
2022/02/01 04:31:26;;;;;;;15.75;2.70;;;;;;;5.83;100.00;101793.66;5070958;28;20060;-33
2022/02/01 04:33:53;;;;;;;15.57;3.10;;;;;;;5.85;100.00;101785.94;5070079;28;20055;-34
2022/02/01 04:36:23;;;;;;;18.27;2.72;;;;;;;5.85;100.00;101774.88;5072399;28;20054;-33
2022/02/01 04:38:57;;;;;;;16.10;3.25;;;;;;;5.87;100.00;101758.00;5074613;28;20055;-36
2022/02/01 04:41:25;;;;;;;21.25;3.00;;;;;;;5.87;100.00;101738.63;5073693;28;20049;-33
2022/02/01 04:43:54;;;;;;;21.30;3.25;;;;;;;5.86;100.00;101731.41;5074559;28;20068;-31
2022/02/01 04:46:22;;;;;;;17.75;3.15;;;;;;;5.89;100.00;101733.72;5074660;28;20044;-39
2022/02/01 04:48:50;;;;;;;17.20;3.08;;;;;;;5.92;100.00;101732.38;5073860;28;20056;-32
2022/02/01 04:51:18;;;;;;;17.98;3.05;;;;;;;5.94;100.00;101727.44;5074645;28;20044;-36
2022/02/01 04:53:48;;;;;;;16.00;4.10;;;;;;;5.95;100.00;101726.34;5074483;28;20048;-39
2022/02/01 04:56:17;;;;;;;15.07;3.10;;;;;;;5.94;100.00;101724.66;5072460;28;20844;-35
2022/02/01 04:58:45;;;;;;;16.92;3.15;;;;;;;5.98;100.00;101706.47;5074495;28;20064;-37
2022/02/01 05:01:13;;;;;;;16.27;3.38;;;;;;;5.99;100.00;101697.91;5074075;28;20052;-39
2022/02/01 05:03:42;;;;;;;19.38;3.20;;;;;;;6.00;100.00;101702.31;5069910;28;20124;-37
2022/02/01 05:06:11;;;;;;;14.90;3.03;;;;;;;6.03;100.00;101689.91;5074101;28;20193;-34
2022/02/01 05:08:41;;;;;;;12.60;2.67;;;;;;;6.03;100.00;101696.28;5072478;28;20044;-34
2022/02/01 05:11:10;;;;;;;17.55;3.15;;;;;;;6.06;100.00;101695.81;5073126;28;20044;-36
2022/02/01 05:14:02;;;;;;;18.13;3.45;;;;;;;6.09;100.00;101694.47;5074405;28;20051;-36
2022/02/01 05:16:43;;;;;;;18.77;3.23;;;;;;;6.09;100.00;101675.06;5073332;28;20044;-35
2022/02/01 05:19:22;;;;;;;22.40;3.58;;;;;;;6.10;100.00;101698.91;5073763;28;20274;-35
2022/02/01 05:21:50;;;;;;;23.08;3.53;;;;;;;6.09;100.00;101684.22;5073608;28;20585;-35
2022/02/01 05:24:20;;;;;;;22.95;3.85;;;;;;;6.10;100.00;101676.75;5073387;28;20052;-36
2022/02/01 05:26:50;;;;;;;14.45;3.00;;;;;;;6.13;100.00;101668.78;5073785;28;20048;-36
2022/02/01 05:29:19;;;;;;;17.85;3.95;;;;;;;6.15;100.00;101665.78;5073592;28;20476;-33
2022/02/01 05:31:49;;;;;;;20.15;3.92;;;;;;;6.16;100.00;101656.38;5072677;28;20489;-35
2022/02/01 05:34:17;;;;;;;16.50;3.90;;;;;;;6.17;100.00;101658.06;5073869;28;20045;-37
2022/02/01 05:36:45;;;;;;;22.10;4.97;;;;;;;6.18;100.00;101649.50;5073553;28;20056;-36
2022/02/01 05:39:15;;;;;;;20.67;4.85;;;;;;;6.18;100.00;101643.09;5072675;28;20056;-35
2022/02/01 05:41:43;;;;;;;17.48;4.20;;;;;;;6.17;100.00;101638.66;5064460;28;20040;-34
2022/02/01 05:44:13;;;;;;;16.33;4.18;;;;;;;6.17;100.00;101636.72;5073044;28;20066;-33
2022/02/01 05:46:41;;;;;;;22.40;4.55;;;;;;;6.16;100.00;101635.03;5073358;28;20040;-33
2022/02/01 05:49:09;;;;;;;19.40;4.57;;;;;;;6.19;100.00;101633.69;5072872;28;20045;-32
2022/02/01 05:51:37;;;;;;;23.90;4.80;;;;;;;6.23;100.00;101618.22;5072559;28;20045;-34
2022/02/01 05:54:06;;;;;;;22.98;5.53;;;;;;;6.25;100.00;101616.06;5072977;28;20044;-33
2022/02/01 05:56:33;;;;;;;21.83;5.45;;;;;;;6.26;100.00;101612.19;5073288;28;20040;-36
2022/02/01 05:59:01;;;;;;;22.58;5.70;;;;;;;6.31;100.00;101597.56;5061331;28;20044;-31
2022/02/01 06:01:30;;;;;;;21.58;5.55;;;;;;;6.32;100.00;101602.03;5073114;28;20044;-34
2022/02/01 06:03:58;;;;;;;22.08;5.90;;;;;;;6.34;100.00;101595.16;5073139;28;20048;-33
2022/02/01 06:06:26;;;;;;;20.13;6.30;;;;;;;6.33;100.00;101585.16;5072226;28;20468;-37
2022/02/01 06:08:54;;;;;;;21.75;5.43;;;;;;;6.35;100.00;101588.50;5069166;28;20052;-36
2022/02/01 06:11:22;;;;;;;22.73;6.07;;;;;;;6.36;100.00;101578.25;5061809;28;20048;-34
2022/02/01 06:13:50;;;;;;;21.48;6.15;;;;;;;6.35;100.00;101588.50;5072111;28;20051;-34
2022/02/01 06:16:17;;;;;;;16.05;5.20;;;;;;;6.36;100.00;101567.19;5073058;28;20044;-36
2022/02/01 06:18:47;;;;;;;19.05;5.65;;;;;;;6.34;100.00;101561.03;5072565;28;20061;-38
2022/02/01 06:21:14;;;;;;;16.63;4.60;;;;;;;6.31;100.00;101567.94;5071998;28;20052;-38
2022/02/01 06:23:42;;;;;;;16.92;4.70;;;;;;;6.30;100.00;101569.03;5072696;28;20041;-34
2022/02/01 06:26:15;;;;;;;13.13;4.05;;;;;;;6.29;100.00;101577.59;5072864;28;20528;-35
2022/02/01 06:28:43;;;;;;;12.23;4.20;;;;;;;6.25;100.00;101566.16;5071822;28;20048;-35
2022/02/01 06:31:11;;;;;;;11.90;4.45;;;;;;;6.27;100.00;101558.44;5072367;28;20044;-34
2022/02/01 06:33:39;;;;;;;19.75;5.05;;;;;;;6.28;100.00;101551.81;5071887;28;20045;-36
2022/02/01 06:36:08;;;;;;;15.55;4.03;;;;;;;6.29;100.00;101549.88;5072414;28;20127;-33
2022/02/01 06:38:37;;;;;;;13.10;4.15;;;;;;;6.29;100.00;101561.78;5063709;28;20040;-35
2022/02/01 06:41:05;;;;;;;13.25;3.60;;;;;;;6.28;100.00;101549.03;5071255;28;20064;-34
2022/02/01 06:43:32;;;;;;;18.00;4.07;;;;;;;6.28;100.00;101548.19;5071854;28;20050;-32
2022/02/01 06:46:00;;;;;;;20.27;4.20;;;;;;;6.27;100.00;101550.13;5071739;28;20075;-31
2022/02/01 06:48:28;;;;;;;12.95;3.50;;;;;;;6.29;100.00;101542.41;5071206;28;20055;-34
2022/02/01 06:50:56;;;;;;;21.30;4.05;;;;;;;6.30;100.00;101537.69;5071821;28;20405;-31
2022/02/01 06:53:25;;;;;;;17.58;3.50;;;;;;;6.32;100.00;101539.13;5072291;28;20045;-36
2022/02/01 06:56:05;;;;;;;11.30;2.47;;;;;;;6.33;100.00;101518.63;5071314;28;20109;-39
2022/02/01 06:58:33;;;;;;;11.90;2.90;;;;;;;6.32;100.00;101513.34;5072039;28;20048;-34
2022/02/01 07:01:01;;;;;;;14.88;2.80;;;;;;;6.33;100.00;101502.00;5070761;28;20044;-39
2022/02/01 07:03:29;;;;;;;13.02;2.30;;;;;;;6.34;100.00;101513.91;5071000;28;20056;-33
2022/02/01 07:05:57;;;;;;;20.08;3.50;;;;;;;6.32;100.00;101499.47;5071922;28;20049;-37
2022/02/01 07:08:26;;;;;;;15.00;2.30;;;;;;;6.34;100.00;101500.06;5071702;28;20041;-32
2022/02/01 07:10:54;;;;;;;14.98;2.60;;;;;;;6.34;100.00;101487.03;5070973;28;20092;-38
2022/02/01 07:13:21;;;;;;;12.07;2.83;;;;;;;6.35;100.00;101498.97;5071987;28;20429;-34
2022/02/01 07:15:49;;;;;;;11.57;2.85;;;;;;;6.37;100.00;101496.78;5070118;28;20049;-36
2022/02/01 07:18:17;;;;;;;12.93;2.78;;;;;;;6.37;100.00;101496.78;5071826;28;20058;-38
2022/02/01 07:20:45;;;;;;;16.75;2.78;;;;;;;6.37;100.00;101481.00;5071284;28;20052;-34
2022/02/01 07:23:20;;;;;;;14.88;3.20;;;;;;;6.39;100.00;101473.25;5069852;28;20044;-36
2022/02/01 07:25:49;;;;;;;14.80;2.72;;;;;;;6.37;100.00;101464.38;5071416;28;20058;-41
2022/02/01 07:28:18;;;;;;;13.82;2.67;;;;;;;6.39;100.00;101466.88;5071072;28;20048;-36
2022/02/01 07:30:47;;;;;;;15.70;2.90;;;;;;;6.42;100.00;101477.44;5070327;28;20051;-34
2022/02/01 07:33:15;;;;;;;16.00;3.30;;;;;;;6.42;100.00;101461.63;5070735;28;20136;-34
2022/02/01 07:35:44;;;;;;;15.20;3.22;;;;;;;6.45;100.00;101465.84;5070709;28;20036;-36
2022/02/01 07:38:16;;;;;;;32.15;5.00;;;;;;;6.44;100.00;101462.22;5070088;28;20127;-32
2022/02/01 07:40:44;;;;;;;17.50;3.55;;;;;;;6.46;100.00;101446.16;5062101;28;20049;-35
2022/02/01 07:43:13;;;;;;;16.17;3.55;;;;;;;6.48;100.00;101435.66;5070083;28;20074;-35
2022/02/01 07:45:42;;;;;;;18.27;4.00;;;;;;;6.49;100.00;101431.81;5069348;28;20049;-39
2022/02/01 07:48:10;;;;;;;23.77;4.50;;;;;;;6.51;100.00;101431.53;5070546;28;20070;-35
2022/02/01 07:50:39;;;;;;;19.48;3.58;;;;;;;6.51;100.00;101426.84;5070950;28;20051;-40
2022/02/01 07:53:08;;;;;;;20.73;4.32;;;;;;;6.54;100.00;101425.50;5070171;28;20045;-39
2022/02/01 07:55:36;;;;;;;28.67;4.63;;;;;;;6.56;100.00;101426.06;5071298;28;20505;-34
2022/02/01 07:58:05;;;;;;;19.42;4.00;;;;;;;6.57;100.00;101434.13;5070566;28;20070;-39
2022/02/01 08:00:34;;;;;;;22.27;3.85;;;;;;;6.61;100.00;101419.72;5071491;28;20048;-33
2022/02/01 08:03:02;;;;;;;18.10;3.83;;;;;;;6.62;100.00;101424.16;5070962;28;20488;-32
2022/02/01 08:05:32;;;;;;;21.40;3.75;;;;;;;6.64;100.00;101420.03;5069854;28;20059;-32
2022/02/01 08:08:06;;;;;;;23.85;3.47;;;;;;;6.65;100.00;101415.34;5070677;28;20040;-38
2022/02/01 08:10:41;;;;;;;18.83;3.60;;;;;;;6.67;100.00;101408.44;5070650;28;20091;-36
2022/02/01 08:18:55;;;;;;;22.27;4.05;;;;;;;6.70;100.00;101368.25;5070575;28;20049;-38
2022/02/01 08:21:46;;;;;;;18.90;3.70;;;;;;;6.70;100.00;101366.31;5070706;28;20036;-36
2022/02/01 08:24:14;;;;;;;21.75;4.03;;;;;;;6.73;100.00;101357.50;5070638;28;20044;-35
2022/02/01 08:26:44;;;;;;;22.58;3.88;;;;;;;6.76;100.00;101340.31;5069658;28;20044;-32
2022/02/01 08:29:14;;;;;;;19.55;3.90;;;;;;;6.79;100.00;101333.44;5070510;28;20071;-38
2022/02/01 08:31:49;;;;;;;21.50;3.53;;;;;;;6.80;100.00;101322.03;5070471;28;20083;-36
2022/02/01 08:34:17;;;;;;;23.38;3.63;;;;;;;6.81;100.00;101307.06;5069864;28;20052;-40
2022/02/01 08:36:45;;;;;;;19.58;3.28;;;;;;;6.83;100.00;101317.91;5070410;28;20053;-41
2022/02/01 08:39:14;;;;;;;17.50;3.65;;;;;;;6.85;100.00;101305.44;5069974;28;20163;-37
2022/02/01 08:41:43;;;;;;;23.40;4.03;;;;;;;6.88;100.00;101298.53;5069663;28;20475;-34
2022/02/01 08:44:11;;;;;;;19.23;4.20;;;;;;;6.90;100.00;101299.13;5070501;28;20056;-36
2022/02/01 08:46:38;;;;;;;23.33;4.45;;;;;;;6.89;100.00;101295.50;5070185;28;20071;-37
2022/02/01 08:49:08;;;;;;;20.25;4.22;;;;;;;6.89;100.00;101311.31;5068342;28;20045;-34
2022/02/01 08:51:41;;;;;;;21.45;4.25;;;;;;;6.92;100.00;101316.34;5070262;28;20041;-37
2022/02/01 08:54:16;;;;;;;18.23;4.65;;;;;;;6.93;100.00;101317.19;5069657;28;20045;-35
2022/02/01 08:59:32;;;;;;;29.95;5.35;;;;;;;6.95;100.00;101310.25;5069925;28;20052;-37
2022/02/01 09:01:59;;;;;;;26.80;4.80;;;;;;;6.98;100.00;101309.75;5069505;28;20095;-32
2022/02/01 09:04:29;;;;;;;23.63;4.90;;;;;;;6.98;100.00;101295.88;5068596;28;20048;-38
2022/02/01 09:06:57;;;;;;;21.88;4.25;;;;;;;7.01;100.00;101292.53;5069398;28;20375;-39
2022/02/01 09:09:25;;;;;;;20.55;4.50;;;;;;;7.05;100.00;101271.50;5068136;28;20059;-31
2022/02/01 09:11:53;;;;;;;21.30;4.05;;;;;;;7.09;100.00;101286.50;5069767;28;20139;-35
2022/02/01 09:14:20;;;;;;;21.60;4.00;;;;;;;7.11;100.00;101289.84;5069965;28;20055;-39
2022/02/01 09:16:48;;;;;;;21.08;3.97;;;;;;;7.13;100.00;101287.66;5069030;28;20041;-36
2022/02/01 09:19:17;;;;;;;18.83;3.83;;;;;;;7.16;100.00;101292.69;5070023;28;20525;-34
2022/02/01 09:21:47;;;;;;;25.42;4.38;;;;;;;7.17;100.00;101296.28;5069912;28;20048;-41
2022/02/01 09:24:15;;;;;;;21.50;4.43;;;;;;;7.19;100.00;101300.44;5070141;28;20040;-37
2022/02/01 09:26:43;;;;;;;21.35;3.97;;;;;;;7.22;100.00;101299.91;5073584;28;20040;-38
2022/02/01 09:29:20;;;;;;;25.23;4.25;;;;;;;7.23;100.00;101298.81;5062743;28;20055;-33
2022/02/01 09:31:48;;;;;;;20.98;3.72;;;;;;;7.25;100.00;101304.94;5072735;28;20055;-37
2022/02/01 09:34:16;;;;;;;21.52;3.72;;;;;;;7.29;100.00;101290.53;5072708;28;20830;-36
2022/02/01 09:36:50;;;;;;;19.20;3.77;;;;;;;7.31;100.00;101296.66;5072568;28;20142;-38
2022/02/01 09:39:18;;;;;;;20.17;3.58;;;;;;;7.31;100.00;101266.13;5072362;28;20044;-38
2022/02/01 09:41:46;;;;;;;19.90;3.40;;;;;;;7.33;100.00;101275.88;5072484;28;20044;-39
2022/02/01 09:44:15;;;;;;;24.75;4.10;;;;;;;7.36;100.00;101274.50;5072481;28;20036;-36
2022/02/01 09:46:43;;;;;;;25.30;3.95;;;;;;;7.40;100.00;101257.00;5072320;28;20131;-39
2022/02/01 09:49:15;;;;;;;19.27;3.67;;;;;;;7.43;100.00;101263.97;5072409;28;20520;-37
2022/02/01 09:51:44;;;;;;;19.33;3.17;;;;;;;7.45;100.00;101281.19;5071719;28;20131;-40
2022/02/01 09:54:23;;;;;;;23.40;4.18;;;;;;;7.46;100.00;101271.78;5071411;28;20490;-39
2022/02/01 09:56:51;;;;;;;15.95;3.28;;;;;;;7.48;100.00;101275.97;5073167;28;20047;-38
2022/02/01 09:59:29;;;;;;;19.45;3.60;;;;;;;7.50;100.00;101275.69;5072097;28;20094;-36
2022/02/01 10:01:57;;;;;;;20.33;3.72;;;;;;;7.51;100.00;101260.69;5072389;28;20051;-36
2022/02/01 10:04:28;;;;;;;20.85;3.33;;;;;;;7.55;100.00;101247.97;5073115;28;20509;-38
2022/02/01 10:07:07;;;;;;;17.27;3.70;;;;;;;7.55;100.00;101254.34;5072498;28;20048;-39
2022/02/01 10:09:51;;;;;;;20.33;3.55;;;;;;;7.60;100.00;101246.00;5072637;28;20064;-31
2022/02/01 10:12:20;;;;;;;18.00;3.58;;;;;;;7.61;100.00;101249.63;5069884;28;20473;-38
2022/02/01 10:14:55;;;;;;;27.30;3.50;;;;;;;7.63;100.00;101241.88;5072440;28;20052;-37
2022/02/01 10:17:33;;;;;;;20.48;3.00;;;;;;;7.66;100.00;101232.16;5072620;28;20425;-36
2022/02/01 10:20:01;;;;;;;21.65;3.53;;;;;;;7.68;100.00;101227.19;5072144;28;20072;-39
2022/02/01 10:22:30;;;;;;;21.33;3.95;;;;;;;7.70;100.00;101234.13;5072490;28;20045;-40
2022/02/01 10:25:03;;;;;;;21.27;3.28;;;;;;;7.71;100.00;101235.81;5072786;28;20053;-32
2022/02/01 10:27:32;;;;;;;17.77;3.50;;;;;;;7.73;100.00;101230.81;5068104;28;20139;-39
2022/02/01 10:30:09;;;;;;;19.63;3.30;;;;;;;7.75;100.00;101225.84;5072720;28;20051;-37
2022/02/01 10:33:04;;;;;;;21.98;3.40;;;;;;;7.78;100.00;101235.56;5071562;28;20106;-33
2022/02/01 10:35:55;;;;;;;23.63;3.58;;;;;;;7.80;100.00;101241.66;5064259;28;20056;-38
2022/02/01 10:38:21;;;;;;;18.25;2.90;;;;;;;7.80;100.00;101236.94;5061812;28;20482;-41
2022/02/01 10:40:52;;;;;;;20.58;3.15;;;;;;;7.84;100.00;101229.75;5071316;28;20497;-36
2022/02/01 10:43:27;;;;;;;20.50;3.50;;;;;;;7.87;100.00;101233.91;5071650;28;20426;-34
2022/02/01 10:46:00;;;;;;;23.15;3.63;;;;;;;7.91;100.00;101215.59;5071750;28;20048;-41
2022/02/01 10:48:28;;;;;;;20.67;3.13;;;;;;;7.91;100.00;101218.38;5071104;28;20422;-33
2022/02/01 10:51:02;;;;;;;24.80;4.32;;;;;;;7.94;100.00;101215.91;5072275;28;20064;-36
2022/02/01 10:53:30;;;;;;;18.27;3.22;;;;;;;7.95;100.00;101213.94;5071413;28;20037;-36
2022/02/01 10:56:00;;;;;;;17.27;3.28;;;;;;;7.98;100.00;101216.19;5071354;28;20053;-42
2022/02/01 10:58:28;;;;;;;16.33;3.03;;;;;;;8.00;100.00;101199.22;5071045;28;20515;-35
2022/02/01 11:00:56;;;;;;;16.30;3.28;;;;;;;8.03;100.00;101193.13;5071092;28;20052;-39
2022/02/01 11:03:25;;;;;;;19.85;3.30;;;;;;;8.05;100.00;101175.06;5071729;28;20048;-35
2022/02/01 11:05:55;;;;;;;19.90;3.15;;;;;;;8.10;100.00;101185.38;5071570;28;20068;-38
2022/02/01 11:08:26;;;;;;;22.50;3.35;;;;;;;8.13;100.00;101182.03;5071011;28;20052;-34
2022/02/01 11:10:56;;;;;;;21.27;2.70;;;;;;;8.14;100.00;101159.53;5068359;28;20505;-35
2022/02/01 11:13:37;;;;;;;19.38;3.15;;;;;;;8.19;100.00;101164.25;5070179;28;20080;-40
2022/02/01 11:16:06;;;;;;;16.65;3.08;;;;;;;8.21;100.00;101173.97;5069416;28;20084;-40
2022/02/01 11:18:36;;;;;;;18.10;3.85;;;;;;;8.27;100.00;101178.44;5071945;28;20044;-39
2022/02/01 11:21:14;;;;;;;19.48;3.20;;;;;;;8.32;100.00;101180.44;5071451;28;20052;-41
2022/02/01 11:23:49;;;;;;;22.63;3.60;;;;;;;8.37;100.00;101172.09;5068800;28;20045;-38
2022/02/01 11:26:29;;;;;;;22.58;2.70;;;;;;;8.44;100.00;101155.13;5070373;28;20623;-40
2022/02/01 11:31:49;;;;;;;20.98;2.97;;;;;;;8.49;100.00;101169.88;5070747;28;20044;-43
2022/02/01 11:34:19;;;;;;;21.35;3.45;;;;;;;8.51;100.00;101176.00;5070494;28;20045;-38
2022/02/01 11:36:47;;;;;;;25.23;3.75;;;;;;;8.52;100.00;101185.16;5070190;28;20076;-36
2022/02/01 11:39:17;;;;;;;30.75;4.38;;;;;;;8.53;100.00;101157.09;5070469;28;20056;-37
2022/02/01 11:41:47;;;;;;;18.92;2.90;;;;;;;8.54;100.00;101130.94;5070352;28;20054;-34
2022/02/01 11:44:24;;;;;;;17.58;3.05;;;;;;;8.57;100.00;101133.16;5070123;28;20060;-41
2022/02/01 11:47:07;;;;;;;17.88;2.92;;;;;;;8.62;100.00;101133.13;5070438;28;20049;-41
2022/02/01 11:49:35;;;;;;;20.73;2.78;;;;;;;8.66;100.00;101135.38;5071277;28;20139;-33
2022/02/01 11:52:07;;;;;;;18.38;3.00;;;;;;;8.72;100.00;101121.19;5070280;28;20044;-41
2022/02/01 11:54:36;;;;;;;20.88;3.80;;;;;;;8.75;100.00;101126.19;5071176;28;20040;-31
2022/02/01 11:57:15;;;;;;;23.52;3.10;;;;;;;8.80;100.00;101137.28;5070104;28;20064;-37
2022/02/01 11:59:52;;;;;;;20.33;2.92;;;;;;;8.80;100.00;101134.50;5071095;28;20036;-34
2022/02/01 12:02:32;;;;;;;18.42;2.70;;;;;;;8.79;100.00;101140.38;5070883;28;20040;-33
2022/02/01 12:05:10;;;;;;;23.67;3.70;;;;;;;8.74;100.00;101149.56;5070304;28;20111;-42
2022/02/01 12:07:43;;;;;;;16.60;3.05;;;;;;;8.82;100.00;101139.78;5070828;28;20094;-36
2022/02/01 12:10:13;;;;;;;21.08;2.55;;;;;;;8.88;100.00;101147.03;5070968;28;20056;-37
2022/02/01 12:12:42;;;;;;;17.40;2.65;;;;;;;8.93;100.00;101147.03;5070159;28;20049;-33
2022/02/01 12:15:11;;;;;;;20.67;2.85;;;;;;;8.92;100.00;101128.66;5070349;28;20051;-41
2022/02/01 12:17:44;;;;;;;25.65;3.03;;;;;;;8.92;100.00;101126.69;5069628;28;20139;-31
2022/02/01 12:20:16;;;;;;;14.43;2.85;;;;;;;9.03;100.00;101135.00;5068726;28;20091;-37
2022/02/01 12:22:59;;;;;;;16.65;2.85;;;;;;;9.15;100.00;101132.78;5070438;28;20082;-31
2022/02/01 12:25:29;;;;;;;22.55;3.03;;;;;;;9.17;100.00;101123.03;5069627;28;20858;-37
2022/02/01 12:27:57;;;;;;;22.88;3.67;;;;;;;9.21;100.00;101121.31;5070123;28;20048;-39
2022/02/01 12:30:26;;;;;;;19.98;3.20;;;;;;;9.29;100.00;101114.34;5070191;28;21031;-40
2022/02/01 12:32:57;;;;;;;14.25;2.92;;;;;;;9.39;100.00;101113.47;5070028;28;20132;-35
2022/02/01 12:35:33;;;;;;;15.48;2.85;;;;;;;9.45;100.00;101117.88;5070750;28;20051;-33
2022/02/01 12:38:05;;;;;;;15.85;2.55;;;;;;;9.47;100.00;101113.69;5070680;28;20052;-33
2022/02/01 12:40:36;;;;;;;18.85;2.85;;;;;;;9.47;100.00;101102.56;5069876;28;20041;-36
2022/02/01 12:43:10;;;;;;;23.20;3.47;;;;;;;9.52;100.00;101118.41;5070302;28;20135;-36